METAR Data
IDs: Format: Raw Decoded Include TAF

Data at: 2219 UTC 19 Jan 2019

PAMR 192153Z 00000KT 3SM BR SCT002 M12/M14 A2959 RMK AO2 SNB15E34 SLP024 P0000 T11221139 $
PAMR 192146Z 00000KT 2SM BR SCT002 M12/M14 A2959 RMK AO2 SNB15E34 P0000 T11221139 $
PAMR 192053Z 03004KT 3/4SM BR VV002 M12/M14 A2960 RMK AO2 SLP026 I1000 I3000 T11171139 52010 $
PAMR 191953Z 00000KT 1/4SM FZFG VV002 M12/M14 A2959 RMK AO2 SLP022 VCFG T11171139 $
PAMR 191918Z 03003KT 1/4SM FZFG VV001 M13/M14 A2958 RMK AO2 VCFG T11281144 $
PAMR 191853Z 01003KT 1SM FZFG BKN002 M12/M14 A2958 RMK AO2 SLP019 I1000 T11171144 $
PAMR 191753Z 00000KT 1/4SM FZFG VV001 M13/M15 A2957 RMK AO2 SLP015 I6000 T11281150 11094 21128 55002 $
PAMR 191653Z 00000KT 1/2SM FZFG VV002 M10/M13 A2956 RMK AO2 SLP013 T11001128 $
PAMR 191601Z 00000KT 1/2SM FZFG OVC002 M11/M13 A2956 RMK AO2 T11061128 $
PAMR 191553Z 10003KT 4SM BR OVC002 M11/M13 A2956 RMK AO2 SLP014 I1000 T11061128 $
PAMR 191514Z COR 32003KT 4SM BR OVC002 M10/M13 A2957 RMK AO2 T11001128 $
PAMR 191505Z 00000KT 2 1/2SM BR OVC002 M10/M12 A2957 RMK AO2 T11001122 $
PAMR 191453Z 03003KT 1SM BR OVC002 M10/M12 A2957 RMK AO2 SLP017 I3000 T11001122 53001 $
PAMR 191451Z 03004KT 3/4SM BR OVC002 M10/M12 A2957 RMK AO2 $
PAMR 191418Z 03005KT 1 1/4SM BR OVC002 M09/M12 A2957 RMK AO2 T10941117 $
PAMR 191353Z 01003KT 1/4SM FZFG VV002 M11/M13 A2957 RMK AO2 SLP015 I1000 T11061128 $
PAMR 191253Z 00000KT 1/4SM FZFG VV002 M12/M14 A2957 RMK AO2 SLP016 T11171139 $
PAMR 191153Z 32004KT 1/4SM FZFG VV002 M11/M13 A2957 RMK AO2 SLP017 4/007 I6000 T11111133 11100 21128 57002 $
PAMR 191053Z 03004KT 1/4SM FZFG VV002 M12/M14 A2958 RMK AO2 SLP018 T11171139 $
PAMR 190953Z 00000KT 1/4SM FZFG VV001 M13/M15 A2958 RMK AO2 SLP018 I1000 T11281150 $
PAMR 190853Z 02003KT 1/2SM FZFG OVC002 M12/M14 A2958 RMK AO2 SLP019 T11171144 410721144 51002 $
PAMR 190753Z 09003KT 1/2SM FZFG VV002 M12/M14 A2958 RMK AO2 SLP018 T11171139 $
PAMR 190653Z 00000KT 3/4SM FZFG VV002 M10/M13 A2958 RMK AO2 SLP019 T11001133 $
PAMR 190553Z 00000KT 3/4SM FZFG VV002 M10/M13 A2957 RMK AO2 SLP017 I6000 T11001128 11078 21100 57003 $
PAMR 190548Z 04003KT 3/4SM FZFG OVC002 M10/M13 A2957 RMK AO2 $
PAMR 190453Z COR 00000KT 1/2SM FZFG VV002 M09/M12 A2958 RMK AO2 SLP018 T10941117 $
PAMR 190353Z 00000KT 3/4SM FZFG OVC002 M09/M11 A2958 RMK AO2 SLP019 I1000 T10891111 $
PAMR 190253Z 11003KT 1/2SM FZFG VV002 M08/M11 A2958 RMK AO2 SLP020 T10831106 56001 $
PAMR 190153Z 00000KT 1/4SM FZFG VV002 M08/M11 A2959 RMK AO2 SLP022 T10831111 $
PAMR 190053Z 00000KT M1/4SM FZFG VV002 M08/M11 A2958 RMK AO2 SLP019 T10831106 $
PAMR 182353Z 00000KT M1/4SM FZFG VV002 M09/M12 A2958 RMK AO2 SLP021 60000 I1000 I6001 T10891117 11083 21094 58006 $
PAMR 182253Z 00000KT 1/4SM HZ OVC002 M08/M11 A2960 RMK AO2 SLP025 I1000 T10831111 $
PAMR 182153Z 00000KT M1/4SM FZFG VV002 M09/M11 A2960 RMK AO2 SLP025 T10891111
PAMR 182053Z 02003KT M1/4SM FZFG VV002 M09/M12 A2960 RMK AO2 SLP027 60000 I1001 I3001 T10941117 51006
PAMR 181953Z 01004KT M1/4SM FZFG VV002 M09/M11 A2960 RMK AO2 SNB07E16 SLP025 P0000 I1000 T10891111
PAMR 181853Z 03003KT M1/4SM FZFG VV002 M09/M12 A2960 RMK AO2 SLP025 T10941117
PAMR 181753Z 00000KT 1/4SM FZFG VV002 M09/M12 A2958 RMK AO2 SLP021 T10941117 11072 21100 55002
PAMR 181653Z 00000KT 1/2SM FZFG VV002 M09/M12 A2958 RMK AO2 SLP019 T10941117
PAMR 181634Z 00000KT 1/2SM HZ VV002 M10/M13 A2958 RMK AO2 T11001133
PAMR 181632Z 00000KT 2SM HZ OVC002 M10/M13 A2958 RMK AO2 T11001133
PAMR 181553Z 00000KT 1/4SM FZFG VV002 M10/M12 A2958 RMK AO2 SLP019 T11001122
PAMR 181453Z 01004KT 1/4SM FZFG VV002 M08/M10 A2959 RMK AO2 SLP023 T10781100 55001
PAMR 181353Z 05003KT 1/4SM FZFG VV002 M08/M09 A2959 RMK AO2 SLP022 T10781094
PAMR 181253Z 00000KT M1/4SM FZFG VV002 M08/M11 A2959 RMK AO2 SLP023 T10831106
PAMR 181153Z 02004KT 1/4SM FZFG VV002 M09/M11 A2959 RMK AO2 SLP024 I6000 T10941111 11094 21144 58002
PAMR 181145Z 01004KT 3/4SM BR OVC002 M10/M12 A2960 RMK AO2 VIS 1/4V5 T11001117
PAMR 181114Z 00000KT 6SM BR OVC002 M11/M13 A2959 RMK AO2 T11111128
PAMR 181106Z 00000KT 2 1/2SM BR OVC002 M11/M13 A2959 RMK AO2 T11111128
PAMR 181053Z 00000KT 1/2SM FZFG VV002 M12/M14 A2960 RMK AO2 SLP024 I1000 T11221139